aviador You're here:

LYPG Decoded Metar

PODGORICA in SERBIA
Report Time2017-12-11 22:30:00
UTC Time2017-12-11 22:58:51
Flight Rules vfr VFR
Wind140° at 08 kt
W.Decomp.*RWY 18: 5.9 kt HW 5.5 kt LCW
W.Rank140° ranks 8
Current wind is above 140° avg. (6.2)
Visibility9999 m
Phenomena:N/A
Clouds:Few 030 Hf
Scattered 040 Hf
Overcast 070 Hf
Expected CloudBase > 800 ft AGL from Temp-Dew spread
Ceiling7,000 ft
Temp11°C (ISA -4)
Dew Point09°C (88% RH)
AAT7.9°C
QNH1019 hPa
Density Alt-351 ft
Elevation141 ft
Report Wrong Elevation
Raw Report
LYPG 112230Z 14008KT 090V160 9999 FEW030 SCT040 OVC070 11/09 Q1019
NOSIG=

Extra information for LYPG:More info

Metar Taf Metar & Taf Last 4 Metars F.Rules Stats Wind Profile Meteogram Temp Stats Airport Information Weather charts Add Link Nearby VenuesMetar ALERT Operation Metar Decoded Social comments